Time;durP1;ratioP1;P1;durP2;ratioP2;P2;SDS_P1;SDS_P2;PMS_P1;PMS_P2;Temp;Humidity;BMP_temperature;BMP_pressure;BME280_temperature;BME280_humidity;BME280_pressure;Samples;Min_cycle;Max_cycle;Signal;HPM_P1;HPM_P2
2021/03/20 00:01:15;;;;;;;4.57;4.15;;;1.90;99.90;;;;;;5078606;28;20024;-72
2021/03/20 00:03:41;;;;;;;6.18;4.95;;;2.00;99.90;;;;;;5067618;28;20493;-72
2021/03/20 00:06:08;;;;;;;4.93;3.85;;;2.00;99.90;;;;;;5064116;28;20049;-72
2021/03/20 00:08:34;;;;;;;7.05;5.25;;;2.10;99.90;;;;;;5063658;28;20029;-72
2021/03/20 00:11:00;;;;;;;6.40;5.65;;;1.90;99.90;;;;;;5063990;28;20103;-72
2021/03/20 00:13:26;;;;;;;7.13;5.50;;;1.80;99.90;;;;;;5061998;28;20096;-72
2021/03/20 00:15:53;;;;;;;6.20;5.43;;;1.80;99.90;;;;;;5060738;28;20108;-72
2021/03/20 00:18:22;;;;;;;6.40;5.28;;;1.70;99.90;;;;;;5062758;28;20024;-72
2021/03/20 00:20:47;;;;;;;4.20;3.80;;;1.60;99.90;;;;;;5064180;28;20099;-72
2021/03/20 00:23:13;;;;;;;4.75;3.78;;;1.50;99.90;;;;;;5063650;28;20154;-72
2021/03/20 00:25:40;;;;;;;4.47;3.90;;;1.60;99.90;;;;;;5068336;28;20050;-72
2021/03/20 00:28:09;;;;;;;4.53;4.05;;;1.60;99.90;;;;;;5060564;28;20025;-72
2021/03/20 00:30:35;;;;;;;6.22;4.47;;;1.60;99.90;;;;;;5064674;28;20626;-72
2021/03/20 00:33:01;;;;;;;6.68;5.03;;;1.70;99.90;;;;;;5063665;28;20061;-72
2021/03/20 00:35:26;;;;;;;5.78;3.88;;;1.70;99.90;;;;;;5062227;28;20456;-72
2021/03/20 00:37:53;;;;;;;6.10;4.35;;;1.50;99.90;;;;;;5060469;28;20025;-72
2021/03/20 00:40:23;;;;;;;5.80;4.43;;;1.40;99.90;;;;;;5063854;28;20103;-71
2021/03/20 00:42:49;;;;;;;5.03;4.53;;;1.40;99.90;;;;;;5060458;28;20505;-71
2021/03/20 00:45:16;;;;;;;5.22;4.68;;;1.40;99.90;;;;;;5060521;28;20039;-71
2021/03/20 00:47:42;;;;;;;5.53;3.70;;;1.40;99.90;;;;;;5060245;28;20458;-71
2021/03/20 00:50:11;;;;;;;4.88;4.30;;;1.40;99.90;;;;;;5060504;28;20060;-72
2021/03/20 00:52:37;;;;;;;5.18;4.15;;;1.50;99.90;;;;;;5062175;28;20481;-72
2021/03/20 00:55:03;;;;;;;4.85;4.35;;;1.50;99.90;;;;;;5063592;28;20082;-71
2021/03/20 00:57:29;;;;;;;6.07;3.67;;;1.60;99.90;;;;;;5062348;28;20496;-71
2021/03/20 00:59:54;;;;;;;5.28;3.70;;;1.70;99.90;;;;;;5059978;28;20136;-71
2021/03/20 01:02:20;;;;;;;5.57;3.75;;;1.70;99.90;;;;;;5059841;28;20416;-71
2021/03/20 01:04:46;;;;;;;5.43;4.20;;;1.70;99.90;;;;;;5063342;28;20033;-71
2021/03/20 01:07:12;;;;;;;5.70;5.10;;;1.70;99.90;;;;;;5065282;28;20103;-72
2021/03/20 01:09:38;;;;;;;8.05;5.32;;;1.80;99.90;;;;;;5065047;28;20549;-71
2021/03/20 01:12:04;;;;;;;5.93;4.88;;;1.70;99.90;;;;;;5064437;28;20021;-71
2021/03/20 01:14:30;;;;;;;6.38;5.05;;;1.70;99.90;;;;;;5064581;28;20021;-71
2021/03/20 01:16:56;;;;;;;6.03;4.57;;;1.70;99.90;;;;;;5067187;28;20498;-71
2021/03/20 01:19:21;;;;;;;6.95;4.43;;;1.50;99.90;;;;;;5067146;28;20357;-71
2021/03/20 01:21:47;;;;;;;4.90;4.05;;;1.60;99.90;;;;;;5064011;28;20057;-71
2021/03/20 01:24:13;;;;;;;4.35;3.95;;;1.50;99.90;;;;;;5063937;28;20032;-72
2021/03/20 01:26:39;;;;;;;4.57;3.55;;;1.40;99.90;;;;;;5065057;28;20219;-72
2021/03/20 01:29:04;;;;;;;4.82;3.78;;;1.30;99.90;;;;;;5066956;28;20036;-71
2021/03/20 01:31:30;;;;;;;7.63;4.63;;;1.30;99.90;;;;;;5070057;28;20044;-71
2021/03/20 01:33:56;;;;;;;5.50;4.60;;;1.40;99.90;;;;;;5063592;28;20021;-71
2021/03/20 01:36:22;;;;;;;7.63;4.82;;;1.40;99.90;;;;;;5063786;28;20453;-71
2021/03/20 01:38:48;;;;;;;6.45;4.60;;;1.50;99.90;;;;;;5065067;28;20029;-71
2021/03/20 01:41:18;;;;;;;5.85;4.63;;;1.60;99.90;;;;;;5062232;28;20489;-71
2021/03/20 01:43:45;;;;;;;4.60;4.00;;;1.60;99.90;;;;;;5065268;28;20036;-71
2021/03/20 01:46:41;;;;;;;5.43;4.30;;;1.50;99.90;;;;;;5066603;28;20025;-71
2021/03/20 01:49:18;;;;;;;6.07;4.45;;;1.50;99.90;;;;;;5060682;28;20025;-71
2021/03/20 01:51:56;;;;;;;5.50;4.80;;;1.60;99.90;;;;;;5064738;28;20063;-71
2021/03/20 01:54:25;;;;;;;7.25;5.53;;;1.60;99.90;;;;;;5063008;28;20105;-71
2021/03/20 01:56:51;;;;;;;5.55;4.65;;;1.50;99.90;;;;;;5065753;28;20036;-71
2021/03/20 01:59:18;;;;;;;5.18;4.50;;;1.40;99.90;;;;;;5066211;28;20078;-72
2021/03/20 02:01:43;;;;;;;6.72;5.10;;;1.40;99.90;;;;;;5064711;28;20077;-71
2021/03/20 02:04:10;;;;;;;9.43;5.13;;;1.30;99.90;;;;;;5063336;28;20423;-72
2021/03/20 02:06:36;;;;;;;6.38;4.57;;;1.40;99.90;;;;;;5062921;28;20103;-71
2021/03/20 02:09:09;;;;;;;5.43;4.63;;;1.50;99.90;;;;;;5066451;28;20024;-71
2021/03/20 02:12:00;;;;;;;5.70;4.90;;;1.50;99.90;;;;;;5064969;28;20039;-71
2021/03/20 02:14:32;;;;;;;6.88;5.95;;;1.40;99.90;;;;;;5061682;28;20017;-71
2021/03/20 02:17:25;;;;;;;6.05;4.72;;;1.30;99.90;;;;;;5063192;28;20025;-72
2021/03/20 02:20:23;;;;;;;5.28;4.55;;;1.30;99.90;;;;;;5064094;28;20080;-71
2021/03/20 02:23:10;;;;;;;6.03;5.18;;;1.20;99.90;;;;;;5064495;28;20472;-71
2021/03/20 02:25:44;;;;;;;6.88;4.82;;;1.30;99.90;;;;;;5062747;28;20021;-71
2021/03/20 02:28:32;;;;;;;6.50;5.20;;;1.30;99.90;;;;;;5058950;28;20052;-71
2021/03/20 02:31:03;;;;;;;7.95;5.20;;;1.40;99.90;;;;;;5065461;28;20043;-71
2021/03/20 02:34:02;;;;;;;6.53;5.40;;;1.50;99.90;;;;;;5066060;28;20127;-71
2021/03/20 02:36:33;;;;;;;7.13;5.30;;;1.40;99.90;;;;;;5061095;28;20029;-71
2021/03/20 02:39:09;;;;;;;6.10;5.50;;;1.30;99.90;;;;;;5071323;28;20031;-71
2021/03/20 02:41:54;;;;;;;5.50;4.90;;;1.30;99.90;;;;;;5062570;28;20025;-71
2021/03/20 02:44:40;;;;;;;5.85;5.10;;;1.40;99.90;;;;;;5059628;28;20025;-71
2021/03/20 02:47:09;;;;;;;6.55;5.22;;;1.40;99.90;;;;;;5065590;28;20046;-71
2021/03/20 02:49:54;;;;;;;9.63;5.10;;;1.40;99.90;;;;;;5065474;28;20032;-71
2021/03/20 02:52:23;;;;;;;7.32;5.90;;;1.40;99.90;;;;;;5059624;28;20112;-71
2021/03/20 02:55:12;;;;;;;6.88;5.07;;;1.30;99.90;;;;;;5064609;28;20028;-71
2021/03/20 02:57:54;;;;;;;8.77;5.50;;;1.40;99.90;;;;;;5061937;28;20025;-71
2021/03/20 03:00:31;;;;;;;6.55;5.55;;;1.40;99.90;;;;;;5059226;28;20103;-71
2021/03/20 03:02:58;;;;;;;7.00;5.90;;;1.40;99.90;;;;;;5063558;28;20354;-71
2021/03/20 03:05:30;;;;;;;7.72;5.57;;;1.40;99.90;;;;;;5062079;28;20036;-71
2021/03/20 03:08:08;;;;;;;5.60;5.00;;;1.30;99.90;;;;;;5063128;28;20033;-71
2021/03/20 03:10:39;;;;;;;7.00;6.05;;;1.30;99.90;;;;;;5065086;28;20029;-71
2021/03/20 03:13:13;;;;;;;6.60;5.68;;;1.30;99.90;;;;;;5062003;28;20028;-71
2021/03/20 03:15:42;;;;;;;6.50;5.60;;;1.20;99.90;;;;;;5062287;28;20025;-71
2021/03/20 03:18:13;;;;;;;7.43;6.25;;;1.20;99.90;;;;;;5064048;28;20035;-71
2021/03/20 03:20:47;;;;;;;6.93;5.80;;;1.30;99.90;;;;;;5065052;28;20021;-71
2021/03/20 03:23:16;;;;;;;6.90;5.15;;;1.30;99.90;;;;;;5064663;28;20070;-71
2021/03/20 03:25:46;;;;;;;8.10;6.50;;;1.30;99.90;;;;;;5064855;28;20027;-71
2021/03/20 03:28:18;;;;;;;7.75;6.40;;;1.30;99.90;;;;;;5061263;28;20036;-71
2021/03/20 03:30:44;;;;;;;8.25;6.93;;;1.30;99.90;;;;;;5066820;28;20118;-71
2021/03/20 03:33:26;;;;;;;8.23;5.78;;;1.30;99.90;;;;;;5064215;28;20070;-71
2021/03/20 03:36:07;;;;;;;8.23;6.65;;;1.30;99.90;;;;;;5062962;28;20025;-71
2021/03/20 03:38:45;;;;;;;8.80;6.15;;;1.30;99.90;;;;;;5062260;28;20029;-71
2021/03/20 03:41:23;;;;;;;6.57;5.43;;;1.30;99.90;;;;;;5063210;28;20408;-71
2021/03/20 03:43:50;;;;;;;6.93;6.15;;;1.30;99.90;;;;;;5064709;28;20066;-71
2021/03/20 03:46:23;;;;;;;8.20;6.60;;;1.30;99.90;;;;;;5061174;28;20037;-72
2021/03/20 03:48:55;;;;;;;7.68;6.68;;;1.30;99.90;;;;;;5061311;28;20029;-71
2021/03/20 03:51:21;;;;;;;7.53;5.90;;;1.40;99.90;;;;;;5056509;28;20051;-71
2021/03/20 03:53:47;;;;;;;7.85;6.03;;;1.40;99.90;;;;;;5064499;28;20024;-71
2021/03/20 03:56:51;;;;;;;6.40;5.63;;;1.40;99.90;;;;;;5061432;28;20021;-71
2021/03/20 03:59:19;;;;;;;8.88;6.25;;;1.50;99.90;;;;;;5063265;28;20433;-71
2021/03/20 04:02:00;;;;;;;6.90;5.88;;;1.40;99.90;;;;;;5064411;28;20107;-71
2021/03/20 04:04:54;;;;;;;7.25;6.03;;;1.40;99.90;;;;;;5056834;28;20036;-71
2021/03/20 04:07:44;;;;;;;7.75;6.00;;;1.40;99.90;;;;;;5061105;28;20459;-71
2021/03/20 04:10:18;;;;;;;;;;;1.40;99.90;;;;;;5062094;28;20124;-71
2021/03/20 04:13:09;;;;;;;7.32;6.35;;;1.40;99.90;;;;;;5064365;28;19904;-71
2021/03/20 04:16:13;;;;;;;6.05;5.45;;;1.50;99.90;;;;;;5057741;28;20028;-71
2021/03/20 04:18:48;;;;;;;9.32;6.38;;;1.50;99.90;;;;;;5066770;28;20051;-71
2021/03/20 04:21:33;;;;;;;7.20;5.65;;;1.40;99.90;;;;;;5062303;28;20035;-71
2021/03/20 04:24:13;;;;;;;7.32;6.63;;;1.40;99.90;;;;;;5063717;28;20549;-71
2021/03/20 04:26:48;;;;;;;;;;;1.20;99.90;;;;;;5058446;28;20493;-71
2021/03/20 04:29:32;;;;;;;8.68;6.18;;;1.20;99.90;;;;;;5061927;28;19923;-71
2021/03/20 04:32:24;;;;;;;7.00;5.80;;;1.20;99.90;;;;;;5060635;28;20473;-71
2021/03/20 04:35:30;;;;;;;7.22;6.45;;;1.20;99.90;;;;;;5060459;28;20033;-71
2021/03/20 04:37:58;;;;;;;7.20;6.00;;;1.20;99.90;;;;;;5063970;28;20047;-71
2021/03/20 04:40:43;;;;;;;6.75;5.55;;;1.20;99.90;;;;;;5060279;28;20035;-71
2021/03/20 04:43:12;;;;;;;8.50;6.53;;;1.30;99.90;;;;;;5060108;28;20025;-71
2021/03/20 04:45:46;;;;;;;7.90;5.93;;;1.30;99.90;;;;;;5064003;28;20384;-71
2021/03/20 04:48:19;;;;;;;6.72;5.80;;;1.30;99.90;;;;;;5062642;28;20036;-71
2021/03/20 04:50:50;;;;;;;7.80;6.15;;;1.30;99.90;;;;;;5059748;28;20033;-71
2021/03/20 04:53:16;;;;;;;7.43;5.90;;;1.20;99.90;;;;;;5059753;28;20112;-71
2021/03/20 04:55:42;;;;;;;7.82;6.13;;;1.30;99.90;;;;;;5065419;28;20020;-71
2021/03/20 04:58:13;;;;;;;9.18;6.07;;;1.20;99.90;;;;;;5055408;28;20485;-71
2021/03/20 05:00:52;;;;;;;7.05;6.28;;;1.20;99.90;;;;;;5052794;28;20033;-71
2021/03/20 05:03:32;;;;;;;7.65;5.88;;;1.10;99.90;;;;;;5051773;28;20037;-71
2021/03/20 05:06:00;;;;;;;6.40;5.65;;;1.10;99.90;;;;;;5058749;28;20404;-71
2021/03/20 05:08:51;;;;;;;8.45;6.60;;;1.00;99.90;;;;;;5061117;28;20037;-71
2021/03/20 05:11:26;;;;;;;7.70;6.90;;;1.00;99.90;;;;;;5067952;28;20033;-71
2021/03/20 05:14:04;;;;;;;7.00;5.88;;;1.10;99.90;;;;;;5061450;28;20058;-71
2021/03/20 05:16:48;;;;;;;7.35;5.90;;;1.10;99.90;;;;;;5052087;28;20369;-71
2021/03/20 05:19:15;;;;;;;7.70;6.20;;;1.10;99.90;;;;;;5050533;28;20063;-71
2021/03/20 05:21:43;;;;;;;8.10;6.20;;;1.10;99.90;;;;;;5050990;28;20139;-71
2021/03/20 05:24:15;;;;;;;9.23;6.25;;;1.10;99.90;;;;;;5059187;28;20103;-71
2021/03/20 05:26:41;;;;;;;8.27;5.93;;;1.10;99.90;;;;;;5071099;28;20081;-71
2021/03/20 05:29:07;;;;;;;7.15;5.90;;;1.10;99.90;;;;;;5070704;28;20045;-72
2021/03/20 05:31:34;;;;;;;6.72;5.80;;;1.00;99.90;;;;;;5067974;28;20381;-71
2021/03/20 05:34:05;;;;;;;8.05;6.80;;;0.90;99.90;;;;;;5072511;28;20040;-71
2021/03/20 05:36:30;;;;;;;7.47;6.53;;;0.90;99.90;;;;;;5072406;28;20052;-71
2021/03/20 05:38:56;;;;;;;7.00;6.05;;;0.80;99.90;;;;;;5068375;28;20055;-71
2021/03/20 05:41:59;;;;;;;9.30;6.80;;;0.80;99.90;;;;;;5070977;28;20135;-72
2021/03/20 05:44:46;;;;;;;9.50;7.38;;;0.90;99.90;;;;;;5070906;28;20067;-71
2021/03/20 05:47:48;;;;;;;9.88;6.75;;;0.90;99.90;;;;;;5071832;28;20032;-71
2021/03/20 05:50:36;;;;;;;8.48;6.25;;;0.90;99.90;;;;;;5052348;28;20486;-71
2021/03/20 05:53:19;;;;;;;8.40;6.68;;;0.80;99.90;;;;;;5052084;28;20049;-71
2021/03/20 05:55:55;;;;;;;9.70;6.38;;;0.70;99.90;;;;;;5063945;28;20017;-71
2021/03/20 05:58:52;;;;;;;9.88;6.32;;;0.70;99.90;;;;;;5055592;28;20107;-71
2021/03/20 06:01:24;;;;;;;8.15;6.85;;;0.60;99.90;;;;;;5058968;28;20025;-71
2021/03/20 06:04:29;;;;;;;8.18;6.85;;;0.60;99.90;;;;;;5064351;28;20044;-71
2021/03/20 06:07:20;;;;;;;7.40;6.43;;;0.50;99.90;;;;;;5061951;28;20062;-71
2021/03/20 06:09:48;;;;;;;7.72;5.72;;;0.60;99.90;;;;;;5057957;28;20064;-71
2021/03/20 06:12:32;;;;;;;8.25;6.22;;;0.60;99.90;;;;;;5074653;28;20074;-71
2021/03/20 06:15:16;;;;;;;8.98;6.13;;;0.60;99.90;;;;;;5075127;28;20130;-71
2021/03/20 06:17:44;;;;;;;8.25;7.07;;;0.70;99.90;;;;;;5075423;28;20031;-71
2021/03/20 06:20:13;;;;;;;7.80;6.22;;;0.80;99.90;;;;;;5075177;28;20028;-72
2021/03/20 06:22:56;;;;;;;7.55;6.50;;;0.90;99.90;;;;;;5075123;28;20020;-71
2021/03/20 06:25:37;;;;;;;8.88;6.00;;;1.10;99.90;;;;;;5074935;28;20020;-71
2021/03/20 06:28:04;;;;;;;7.82;6.65;;;1.20;99.90;;;;;;5072913;28;20077;-71
2021/03/20 06:30:40;;;;;;;8.77;6.95;;;1.30;99.90;;;;;;5074614;28;20081;-71
2021/03/20 06:33:15;;;;;;;7.13;6.43;;;1.40;99.90;;;;;;5062555;28;20028;-71
2021/03/20 06:35:50;;;;;;;8.68;6.65;;;1.60;99.90;;;;;;5054460;28;20036;-71
2021/03/20 06:38:32;;;;;;;6.40;5.07;;;1.60;99.90;;;;;;5064138;28;20443;-72
2021/03/20 06:41:14;;;;;;;6.93;5.90;;;1.60;99.90;;;;;;5074566;28;20028;-71
2021/03/20 06:44:03;;;;;;;7.95;6.25;;;1.80;99.90;;;;;;5074776;28;20033;-71
2021/03/20 06:46:33;;;;;;;8.32;7.32;;;1.80;99.90;;;;;;5032519;28;20034;-72
2021/03/20 06:48:59;;;;;;;7.47;6.43;;;1.90;99.90;;;;;;5032673;28;20127;-71
2021/03/20 06:51:27;;;;;;;8.32;7.43;;;2.10;99.90;;;;;;5020020;28;20045;-71
2021/03/20 06:53:58;;;;;;;8.02;6.85;;;2.10;99.90;;;;;;5012751;28;20509;-71
2021/03/20 06:56:27;;;;;;;7.05;5.85;;;2.10;99.90;;;;;;5012615;28;20434;-72
2021/03/20 06:58:53;;;;;;;7.55;6.05;;;2.30;99.90;;;;;;5012614;28;20042;-72
2021/03/20 07:01:38;;;;;;;7.68;6.88;;;2.40;99.90;;;;;;5012725;28;20049;-72
2021/03/20 07:04:57;;;;;;;8.48;6.43;;;2.40;99.90;;;;;;5017006;28;20057;-72
2021/03/20 07:07:58;;;;;;;7.03;6.05;;;2.60;99.90;;;;;;4988572;28;20114;-72
2021/03/20 07:10:43;;;;;;;6.13;5.53;;;2.50;99.90;;;;;;4992048;28;20050;-72
2021/03/20 07:13:20;;;;;;;7.75;6.65;;;2.50;99.90;;;;;;4990994;28;20622;-71
2021/03/20 07:16:09;;;;;;;6.93;6.00;;;2.50;99.90;;;;;;4987762;28;20599;-71
2021/03/20 07:18:49;;;;;;;10.48;7.68;;;2.50;99.90;;;;;;4984928;28;20565;-72
2021/03/20 07:21:39;;;;;;;9.80;6.90;;;2.50;99.90;;;;;;4972040;28;20062;-72
2021/03/20 07:24:14;;;;;;;7.30;5.70;;;2.50;99.90;;;;;;5018321;28;20075;-72
2021/03/20 07:26:52;;;;;;;9.27;6.65;;;2.70;99.90;;;;;;5050443;28;20621;-72
2021/03/20 07:29:19;;;;;;;6.63;5.90;;;2.70;99.90;;;;;;5050123;28;20064;-72
2021/03/20 07:31:56;;;;;;;8.95;7.18;;;2.70;99.90;;;;;;5047259;28;20124;-72
2021/03/20 07:34:27;;;;;;;9.27;7.13;;;2.70;99.90;;;;;;5029950;28;20033;-72
2021/03/20 07:37:19;;;;;;;8.45;6.50;;;2.60;99.90;;;;;;5030466;28;20359;-72
2021/03/20 07:39:47;;;;;;;7.03;5.93;;;2.50;99.90;;;;;;5030026;28;20037;-72
2021/03/20 07:42:36;;;;;;;6.75;6.05;;;2.60;99.90;;;;;;5049016;28;20040;-72
2021/03/20 07:45:17;;;;;;;9.55;6.93;;;2.70;99.90;;;;;;5052302;28;20063;-72
2021/03/20 07:47:55;;;;;;;10.38;6.75;;;2.80;99.90;;;;;;5051910;28;20027;-72
2021/03/20 07:50:38;;;;;;;7.22;6.20;;;2.90;99.90;;;;;;5052394;28;20087;-72
2021/03/20 07:53:18;;;;;;;8.82;6.68;;;2.80;99.90;;;;;;5058613;28;20431;-72
2021/03/20 07:55:58;;;;;;;8.85;6.45;;;2.80;99.90;;;;;;5072845;28;20488;-72
2021/03/20 07:59:03;;;;;;;7.35;6.43;;;2.80;99.90;;;;;;5064818;28;20025;-72
2021/03/20 08:01:33;;;;;;;9.75;6.82;;;2.90;99.90;;;;;;5051323;28;20043;-72
2021/03/20 08:04:00;;;;;;;;;;;2.90;99.90;;;;;;5056701;28;20036;-72
2021/03/20 08:06:41;;;;;;;8.07;6.13;;;2.90;99.90;;;;;;5070169;28;19911;-72
2021/03/20 08:09:22;;;;;;;;;;;2.90;99.90;;;;;;5071639;28;20111;-72
2021/03/20 08:11:58;;;;;;;7.97;6.68;;;3.00;99.90;;;;;;5072118;28;19963;-72
2021/03/20 08:14:41;;;;;;;7.45;6.65;;;2.90;99.90;;;;;;5072797;28;20525;-72
2021/03/20 08:17:16;;;;;;;6.90;5.97;;;2.80;99.90;;;;;;5071178;28;20031;-72
2021/03/20 08:19:42;;;;;;;10.82;7.20;;;2.80;99.90;;;;;;5073211;28;20465;-72
2021/03/20 08:22:34;;;;;;;7.32;6.60;;;2.70;99.90;;;;;;5072737;28;20090;-72
2021/03/20 08:25:13;;;;;;;7.53;6.45;;;2.80;99.90;;;;;;5073000;28;20025;-72
2021/03/20 08:27:48;;;;;;;9.93;6.47;;;3.50;99.90;;;;;;5073043;28;20094;-72
2021/03/20 08:30:39;;;;;;;6.97;6.28;;;3.70;99.90;;;;;;5071196;28;20135;-72
2021/03/20 08:33:23;;;;;;;8.57;6.65;;;3.90;99.90;;;;;;5072506;28;20043;-72
2021/03/20 08:36:25;;;;;;;9.02;7.22;;;3.90;99.90;;;;;;5072864;28;20435;-73
2021/03/20 08:39:16;;;;;;;8.02;7.03;;;3.60;99.90;;;;;;5029641;28;20042;-72
2021/03/20 08:42:11;;;;;;;7.60;6.70;;;3.40;99.90;;;;;;5020650;28;20037;-72
2021/03/20 08:45:02;;;;;;;8.30;6.50;;;3.40;99.90;;;;;;5024706;28;20042;-73
2021/03/20 08:47:51;;;;;;;7.30;6.43;;;3.40;99.90;;;;;;5031029;28;20045;-72
2021/03/20 08:50:42;;;;;;;7.63;6.72;;;3.40;99.90;;;;;;5030686;28;20042;-72
2021/03/20 08:53:44;;;;;;;7.63;6.55;;;3.30;99.90;;;;;;5030923;28;20119;-72
2021/03/20 08:56:41;;;;;;;8.07;6.68;;;3.50;99.90;;;;;;5030415;28;20501;-72
2021/03/20 08:59:39;;;;;;;7.22;6.22;;;3.50;99.90;;;;;;5013225;28;20034;-72
2021/03/20 09:02:22;;;;;;;7.25;5.65;;;3.60;99.90;;;;;;5011000;28;20489;-72
2021/03/20 09:04:52;;;;;;;9.13;7.05;;;3.40;99.90;;;;;;5024921;28;20116;-72
2021/03/20 09:07:51;;;;;;;8.15;6.53;;;3.20;99.90;;;;;;5026433;28;20180;-72
2021/03/20 09:10:24;;;;;;;9.07;6.90;;;3.40;99.90;;;;;;5022524;28;20084;-72
2021/03/20 09:13:01;;;;;;;7.88;6.65;;;3.50;99.90;;;;;;5028773;28;20030;-72
2021/03/20 09:15:30;;;;;;;9.25;8.02;;;3.30;99.90;;;;;;5037979;28;20476;-72
2021/03/20 09:18:00;;;;;;;7.50;6.70;;;3.30;99.90;;;;;;5063192;28;20108;-72
2021/03/20 09:20:48;;;;;;;8.00;6.75;;;3.50;99.90;;;;;;5064226;28;20037;-72
2021/03/20 09:23:50;;;;;;;9.27;8.30;;;3.40;99.90;;;;;;5069058;28;20025;-72
2021/03/20 09:26:43;;;;;;;8.88;6.72;;;3.20;99.90;;;;;;5066845;28;20485;-72
2021/03/20 09:29:58;;;;;;;8.27;7.28;;;3.20;99.90;;;;;;5071281;28;20068;-72
2021/03/20 09:32:24;;;;;;;10.23;7.38;;;3.30;99.90;;;;;;5070452;28;20045;-72
2021/03/20 09:34:53;;;;;;;8.30;6.85;;;3.40;99.90;;;;;;5075510;28;20036;-72
2021/03/20 09:37:19;;;;;;;8.95;7.32;;;3.50;99.90;;;;;;5075681;28;20021;-72
2021/03/20 09:39:51;;;;;;;8.60;7.70;;;3.30;99.90;;;;;;5076093;28;20095;-72
2021/03/20 09:42:26;;;;;;;7.95;6.65;;;3.40;99.90;;;;;;5073641;28;20484;-72
2021/03/20 09:45:05;;;;;;;8.70;7.63;;;3.60;99.90;;;;;;5074293;28;20029;-72
2021/03/20 09:47:31;;;;;;;8.77;7.63;;;4.00;96.90;;;;;;5076252;28;20040;-72
2021/03/20 09:50:00;;;;;;;9.07;7.25;;;4.80;98.00;;;;;;5075296;28;20361;-73
2021/03/20 09:52:35;;;;;;;10.10;7.75;;;4.70;97.10;;;;;;5075466;28;20380;-72
2021/03/20 09:55:30;;;;;;;7.82;6.47;;;6.20;92.30;;;;;;5057548;28;20116;-72
2021/03/20 09:58:00;;;;;;;10.13;7.20;;;7.40;90.80;;;;;;5067184;28;20146;-72
2021/03/20 10:01:03;;;;;;;7.05;6.35;;;9.70;78.20;;;;;;5075629;28;20032;-72
2021/03/20 10:03:38;;;;;;;7.20;6.50;;;11.40;68.50;;;;;;5075537;28;20110;-72
2021/03/20 10:06:32;;;;;;;8.40;6.53;;;11.20;71.40;;;;;;5074952;28;20438;-72
2021/03/20 10:09:21;;;;;;;7.50;6.65;;;8.20;75.00;;;;;;5069155;28;20068;-72
2021/03/20 10:11:58;;;;;;;6.95;6.25;;;6.70;84.80;;;;;;5074961;28;20111;-72
2021/03/20 10:14:31;;;;;;;7.18;6.50;;;5.90;83.30;;;;;;5074762;28;20469;-72
2021/03/20 10:17:28;;;;;;;5.93;5.43;;;6.50;85.70;;;;;;5074840;28;20028;-72
2021/03/20 10:20:19;;;;;;;6.45;5.85;;;8.00;77.30;;;;;;5062475;28;20059;-72
2021/03/20 10:22:55;;;;;;;6.43;5.82;;;6.20;79.90;;;;;;5066252;28;20408;-72
2021/03/20 10:25:22;;;;;;;7.05;6.35;;;10.20;71.30;;;;;;5074557;28;20021;-72
2021/03/20 10:27:58;;;;;;;6.25;5.68;;;9.70;72.60;;;;;;5074448;28;20069;-72
2021/03/20 10:30:28;;;;;;;6.57;5.97;;;8.00;72.80;;;;;;5074170;28;20037;-72
2021/03/20 10:32:58;;;;;;;5.68;5.15;;;6.70;76.90;;;;;;5074657;28;20107;-72
2021/03/20 10:35:24;;;;;;;6.03;5.45;;;8.10;71.20;;;;;;5074702;28;20047;-72
2021/03/20 10:37:49;;;;;;;6.70;6.00;;;7.10;77.80;;;;;;5074552;28;20051;-72
2021/03/20 10:40:24;;;;;;;7.43;6.15;;;6.80;78.80;;;;;;5073922;28;20481;-72
2021/03/20 10:42:55;;;;;;;7.80;6.45;;;6.60;81.10;;;;;;5074297;28;20081;-72
2021/03/20 10:45:34;;;;;;;6.32;5.72;;;6.10;82.40;;;;;;5074278;28;20035;-72
2021/03/20 10:48:07;;;;;;;6.63;6.03;;;5.40;83.70;;;;;;5074267;28;20396;-72
2021/03/20 10:50:39;;;;;;;7.78;6.22;;;6.60;83.40;;;;;;5074119;28;20025;-72
2021/03/20 10:53:18;;;;;;;7.35;6.40;;;6.20;84.60;;;;;;5074086;28;20428;-72
2021/03/20 10:55:51;;;;;;;6.18;5.32;;;11.80;70.40;;;;;;5073885;28;20024;-72
2021/03/20 10:58:38;;;;;;;6.95;5.53;;;9.80;69.40;;;;;;5073933;28;20081;-72
2021/03/20 11:01:05;;;;;;;7.53;6.82;;;7.50;77.90;;;;;;5073768;28;20033;-72
2021/03/20 11:03:38;;;;;;;7.18;6.47;;;7.00;82.00;;;;;;5074169;28;20374;-72
2021/03/20 11:06:16;;;;;;;7.45;6.03;;;7.40;81.00;;;;;;5073912;28;20024;-72
2021/03/20 11:08:43;;;;;;;6.55;5.93;;;9.20;70.80;;;;;;5073978;28;20031;-72
2021/03/20 11:11:09;;;;;;;7.13;6.45;;;8.60;73.90;;;;;;5073257;28;20024;-72
2021/03/20 11:13:44;;;;;;;7.68;6.40;;;6.70;80.90;;;;;;5073899;28;20487;-72
2021/03/20 11:16:14;;;;;;;7.00;6.30;;;6.50;86.60;;;;;;5073942;28;20377;-72
2021/03/20 11:18:45;;;;;;;6.65;6.00;;;10.30;68.70;;;;;;5073619;28;20036;-72
2021/03/20 11:21:29;;;;;;;7.05;6.35;;;8.80;75.20;;;;;;5073751;28;20029;-72
2021/03/20 11:24:00;;;;;;;6.30;5.60;;;7.60;77.30;;;;;;5073619;28;20028;-72
2021/03/20 11:26:42;;;;;;;7.30;5.90;;;7.00;79.10;;;;;;5073195;28;20028;-72
2021/03/20 11:29:14;;;;;;;7.13;6.13;;;6.50;82.30;;;;;;5073262;28;20076;-72
2021/03/20 11:31:50;;;;;;;8.73;6.13;;;8.40;78.60;;;;;;5073304;28;20074;-72
2021/03/20 11:34:38;;;;;;;6.65;6.05;;;9.50;72.70;;;;;;5073448;28;20033;-72
2021/03/20 11:37:07;;;;;;;6.47;5.85;;;11.00;66.10;;;;;;5073429;28;20040;-72
2021/03/20 11:39:35;;;;;;;5.97;5.43;;;10.00;69.30;;;;;;5073049;28;20043;-72
2021/03/20 11:42:09;;;;;;;5.93;5.18;;;9.50;71.00;;;;;;5073310;28;20025;-72
2021/03/20 11:44:43;;;;;;;6.50;5.60;;;11.10;62.60;;;;;;5073275;28;20024;-72
2021/03/20 11:47:19;;;;;;;6.47;5.60;;;9.50;68.40;;;;;;5073134;28;20162;-72
2021/03/20 11:49:50;;;;;;;6.45;5.93;;;9.90;67.50;;;;;;5073096;28;20453;-72
2021/03/20 11:52:17;;;;;;;6.35;5.72;;;14.90;59.00;;;;;;5072114;28;20370;-72
2021/03/20 11:54:44;;;;;;;5.50;5.00;;;19.30;46.50;;;;;;5072709;28;20025;-72
2021/03/20 11:57:21;;;;;;;5.80;5.30;;;15.40;51.10;;;;;;5072764;28;20051;-72
2021/03/20 11:59:49;;;;;;;6.38;5.35;;;16.10;48.10;;;;;;5072794;28;20033;-72
2021/03/20 12:02:24;;;;;;;4.75;4.35;;;17.20;49.30;;;;;;5072874;28;20595;-72
2021/03/20 12:05:13;;;;;;;4.85;4.40;;;15.60;49.80;;;;;;5073048;28;20025;-73
2021/03/20 12:07:39;;;;;;;4.82;4.43;;;11.90;51.30;;;;;;5072917;28;20081;-72
2021/03/20 12:10:19;;;;;;;4.40;4.00;;;9.40;57.60;;;;;;5072560;28;20056;-72
2021/03/20 12:12:52;;;;;;;;;;;9.20;63.90;;;;;;5073297;28;20025;-72
2021/03/20 12:15:34;;;;;;;5.07;4.45;;;8.20;61.70;;;;;;5072637;28;19904;-72
2021/03/20 12:18:19;;;;;;;4.82;4.35;;;7.30;68.10;;;;;;5072584;28;20047;-72
2021/03/20 12:20:45;;;;;;;4.47;4.00;;;7.90;65.00;;;;;;5072464;28;20028;-72
2021/03/20 12:23:16;;;;;;;4.85;4.43;;;8.20;64.60;;;;;;5072278;28;20085;-72
2021/03/20 12:25:54;;;;;;;4.90;4.47;;;8.60;66.70;;;;;;5072717;28;20063;-72
2021/03/20 12:28:31;;;;;;;5.32;4.82;;;11.10;61.10;;;;;;5072081;28;20502;-76
2021/03/20 12:31:17;;;;;;;4.57;4.18;;;15.40;45.50;;;;;;5072363;28;20041;-76
2021/03/20 12:34:01;;;;;;;5.22;4.38;;;17.00;44.40;;;;;;5072461;28;20020;-76
2021/03/20 12:36:49;;;;;;;3.80;3.50;;;10.30;52.40;;;;;;5072476;28;20035;-74
2021/03/20 12:39:17;;;;;;;4.32;3.92;;;8.30;57.30;;;;;;5072002;28;20511;-80
2021/03/20 12:41:45;;;;;;;5.97;4.32;;;8.00;64.30;;;;;;5072514;28;20025;-80
2021/03/20 12:44:26;;;;;;;4.38;3.97;;;8.00;64.20;;;;;;5072444;28;20039;-81
2021/03/20 12:46:57;;;;;;;4.35;3.85;;;8.40;63.20;;;;;;5072339;28;20052;-80
2021/03/20 12:49:28;;;;;;;3.97;3.58;;;10.10;53.70;;;;;;5072249;28;20481;-80
2021/03/20 12:52:18;;;;;;;4.75;3.63;;;9.50;56.30;;;;;;5072075;28;20401;-81
2021/03/20 12:54:47;;;;;;;4.70;3.33;;;10.10;58.00;;;;;;5071860;28;20028;-81
2021/03/20 12:57:25;;;;;;;5.05;3.60;;;9.80;55.80;;;;;;5072100;28;20048;-80
2021/03/20 12:59:51;;;;;;;5.88;3.35;;;14.20;49.40;;;;;;5072172;28;20508;-80
2021/03/20 13:02:18;;;;;;;3.05;2.75;;;10.30;53.70;;;;;;5072278;28;20056;-80
2021/03/20 13:04:46;;;;;;;3.50;3.20;;;9.40;56.60;;;;;;5076277;28;20613;-80
2021/03/20 13:07:12;;;;;;;3.92;3.58;;;8.10;55.80;;;;;;5075739;28;20022;-81
2021/03/20 13:09:38;;;;;;;3.65;3.35;;;7.70;61.60;;;;;;5076270;28;20111;-81
2021/03/20 13:12:06;;;;;;;4.10;3.70;;;7.70;62.80;;;;;;5076138;28;20037;-81
2021/03/20 13:14:33;;;;;;;3.40;3.10;;;8.00;63.80;;;;;;5076186;28;20074;-81
2021/03/20 13:17:00;;;;;;;3.55;3.25;;;8.10;63.70;;;;;;5076156;28;20044;-80
2021/03/20 13:19:26;;;;;;;4.57;4.18;;;8.10;64.00;;;;;;5075817;28;20021;-81
2021/03/20 13:21:52;;;;;;;4.18;3.78;;;9.50;61.90;;;;;;5075822;28;20081;-82
2021/03/20 13:24:17;;;;;;;4.15;3.75;;;10.60;56.20;;;;;;5075770;28;20488;-87
2021/03/20 13:26:43;;;;;;;4.20;3.90;;;18.00;45.10;;;;;;5076103;28;20511;-83
2021/03/20 13:29:09;;;;;;;4.07;3.78;;;21.70;37.70;;;;;;5075940;28;20044;-84
2021/03/20 13:31:35;;;;;;;3.38;3.08;;;16.20;43.20;;;;;;5089420;28;20115;-84
2021/03/20 13:34:01;;;;;;;3.92;3.53;;;11.80;52.40;;;;;;5096306;28;20046;-83
2021/03/20 13:36:27;;;;;;;3.83;3.08;;;9.60;58.80;;;;;;5095764;28;20418;-84
2021/03/20 13:38:54;;;;;;;3.60;3.30;;;8.80;59.00;;;;;;5096134;28;20020;-84
2021/03/20 13:41:21;;;;;;;4.05;3.65;;;9.00;59.90;;;;;;5095748;28;20036;-83
2021/03/20 13:43:47;;;;;;;3.53;3.22;;;9.40;59.70;;;;;;5095859;28;20024;-85